createdAt,value
2019-01-11T00:02:27.430Z,3.3
2019-01-11T00:07:53.930Z,3.3
2019-01-11T00:13:21.411Z,3.4
2019-01-11T00:18:48.913Z,3.4
2019-01-11T00:24:15.407Z,3.4
2019-01-11T00:29:43.366Z,3.5
2019-01-11T00:35:10.422Z,3.5
2019-01-11T00:40:36.932Z,3.5
2019-01-11T00:46:04.458Z,3.6
2019-01-11T00:51:31.963Z,3.6
2019-01-11T00:56:59.482Z,3.6
2019-01-11T01:02:27.007Z,3.6
2019-01-11T01:07:54.580Z,3.7
2019-01-11T01:13:22.035Z,3.7
2019-01-11T01:18:48.560Z,3.7
2019-01-11T01:24:15.081Z,3.8
2019-01-11T01:29:45.219Z,3.8
2019-01-11T01:35:14.704Z,3.9
2019-01-11T01:40:38.049Z,4
2019-01-11T01:46:05.684Z,4
2019-01-11T01:51:35.265Z,4.1
2019-01-11T01:57:05.563Z,4.1
2019-01-11T02:02:28.549Z,4.2
2019-01-11T02:07:54.570Z,4.2
2019-01-11T02:13:21.051Z,4.2
2019-01-11T02:18:49.157Z,4.2
2019-01-11T02:24:16.087Z,4.2
2019-01-11T02:29:42.663Z,4.2
2019-01-11T02:35:10.361Z,4.3
2019-01-11T02:40:36.770Z,4.3
2019-01-11T02:46:04.373Z,4.3
2019-01-11T02:51:30.967Z,4.4
2019-01-11T02:56:57.527Z,4.5
2019-01-11T03:02:29.163Z,4.6
2019-01-11T03:07:51.807Z,4.7
2019-01-11T03:13:19.305Z,4.8
2019-01-11T03:18:45.911Z,4.9
2019-01-11T03:24:13.470Z,4.9
2019-01-11T03:29:40.640Z,5
2019-01-11T03:35:07.728Z,5
2019-01-11T03:40:34.338Z,4.9
2019-01-11T03:46:00.929Z,4.9
2019-01-11T03:51:28.542Z,4.9
2019-01-11T03:56:55.178Z,4.9
2019-01-11T04:02:21.806Z,4.9
2019-01-11T04:07:49.390Z,4.9
2019-01-11T04:13:16.950Z,4.9
2019-01-11T04:18:44.572Z,5
2019-01-11T04:24:11.200Z,5
2019-01-11T04:29:37.817Z,5.1
2019-01-11T04:35:05.437Z,5.1
2019-01-11T04:40:34.218Z,5.1
2019-01-11T04:45:58.610Z,5.1
2019-01-11T04:51:26.403Z,5.2
2019-01-11T04:56:52.873Z,5.2
2019-01-11T05:02:20.582Z,5.3
2019-01-11T05:07:48.219Z,5.3
2019-01-11T05:13:15.791Z,5.3
2019-01-11T05:18:42.405Z,5.4
2019-01-11T05:24:09.129Z,5.4
2019-01-11T05:29:36.698Z,5.5
2019-01-11T05:35:04.318Z,5.5
2019-01-11T05:40:30.992Z,5.5
2019-01-11T05:45:57.612Z,5.6
2019-01-11T05:51:24.544Z,5.6
2019-01-11T05:56:50.975Z,5.6
2019-01-11T06:02:18.574Z,5.6
2019-01-11T06:07:46.308Z,5.6
2019-01-11T06:13:13.901Z,5.6
2019-01-11T06:18:40.534Z,5.6
2019-01-11T06:24:08.540Z,5.6
2019-01-11T06:29:34.906Z,5.6
2019-01-11T06:35:01.489Z,5.7
2019-01-11T06:40:28.179Z,5.7
2019-01-11T06:45:55.823Z,5.8
2019-01-11T06:51:23.496Z,5.8
2019-01-11T06:56:51.136Z,5.8
2019-01-11T07:02:23.881Z,5.8
2019-01-11T07:07:45.496Z,5.8
2019-01-11T07:13:12.266Z,5.9
2019-01-11T07:18:39.886Z,5.9
2019-01-11T07:24:07.519Z,5.9
2019-01-11T07:29:35.181Z,5.9
2019-01-11T07:35:02.926Z,5.9
2019-01-11T07:40:29.556Z,5.9
2019-01-11T07:45:56.186Z,5.9
2019-01-11T07:51:22.899Z,5.9
2019-01-11T07:56:49.580Z,5.8
2019-01-11T08:02:16.272Z,5.8
2019-01-11T08:07:46.780Z,5.8
2019-01-11T08:13:10.632Z,5.8
2019-01-11T08:18:38.222Z,5.8
2019-01-11T08:24:05.915Z,5.8
2019-01-11T08:29:33.582Z,5.8
2019-01-11T08:35:01.391Z,5.8
2019-01-11T08:40:27.953Z,5.8
2019-01-11T08:45:54.831Z,5.8
2019-01-11T08:51:22.326Z,5.8
2019-01-11T08:56:48.950Z,5.8
2019-01-11T09:02:15.593Z,5.8
2019-01-11T09:07:43.277Z,5.8
2019-01-11T09:13:09.958Z,5.9
2019-01-11T09:18:37.609Z,5.9
2019-01-11T09:24:05.290Z,6
2019-01-11T09:29:32.978Z,6
2019-01-11T09:35:00.697Z,6
2019-01-11T09:40:28.440Z,6.1
2019-01-11T09:45:55.039Z,6.1
2019-01-11T09:51:22.721Z,6.2
2019-01-11T09:56:49.408Z,6.3
2019-01-11T10:02:16.132Z,6.4
2019-01-11T10:07:42.852Z,6.5
2019-01-11T10:13:09.562Z,6.6
2019-01-11T10:18:36.326Z,6.7
2019-01-11T10:24:04.063Z,6.7
2019-01-11T10:29:31.798Z,6.7
2019-01-11T10:34:59.580Z,6.7
2019-01-11T10:40:26.318Z,6.7
2019-01-11T10:45:54.009Z,6.7
2019-01-11T10:51:20.748Z,6.7
2019-01-11T10:56:48.472Z,6.7
2019-01-11T11:02:16.290Z,6.7
2019-01-11T11:07:43.954Z,6.7
2019-01-11T11:13:10.750Z,6.7
2019-01-11T11:18:38.448Z,6.7
2019-01-11T11:24:06.196Z,6.7
2019-01-11T11:29:32.920Z,6.7
2019-01-11T11:35:00.684Z,6.8
2019-01-11T11:40:28.457Z,6.8
2019-01-11T11:45:55.192Z,6.8
2019-01-11T11:51:22.885Z,6.8
2019-01-11T11:56:50.634Z,6.8
2019-01-11T12:02:19.343Z,6.8
2019-01-11T12:07:45.220Z,6.7
2019-01-11T12:13:16.911Z,6.7
2019-01-11T12:18:39.590Z,6.7
2019-01-11T12:24:06.308Z,6.7
2019-01-11T12:29:38.085Z,6.7
2019-01-11T12:35:00.772Z,6.6
2019-01-11T12:40:27.481Z,6.6
2019-01-11T12:45:55.224Z,6.5
2019-01-11T12:51:21.963Z,6.5
2019-01-11T12:56:48.631Z,6.5
2019-01-11T13:02:15.400Z,6.5
2019-01-11T13:07:42.054Z,6.5
2019-01-11T13:13:09.774Z,6.6
2019-01-11T13:18:37.344Z,6.5
2019-01-11T13:24:04.223Z,6.6
2019-01-11T13:29:30.974Z,6.5
2019-01-11T13:34:58.674Z,6.5
2019-01-11T13:40:26.374Z,6.5
2019-01-11T13:45:53.124Z,6.4
2019-01-11T13:51:20.812Z,6.4
2019-01-11T13:56:48.490Z,6.3
2019-01-11T14:02:16.363Z,6.3
2019-01-11T14:07:43.920Z,6.2
2019-01-11T14:13:10.582Z,6.2
2019-01-11T14:18:37.334Z,6.1
2019-01-11T14:24:05.093Z,6.1
2019-01-11T14:29:31.642Z,6
2019-01-11T14:34:59.314Z,6
2019-01-11T14:40:25.987Z,6
2019-01-11T14:45:58.682Z,6
2019-01-11T14:51:21.547Z,5.9
2019-01-11T14:56:48.054Z,5.9
2019-01-11T15:02:15.658Z,5.8
2019-01-11T15:07:42.323Z,5.8
2019-01-11T15:13:09.988Z,5.7
2019-01-11T15:18:36.606Z,5.6
2019-01-11T15:24:03.232Z,5.6
2019-01-11T15:29:29.900Z,5.5
2019-01-11T15:34:56.569Z,5.5
2019-01-11T15:40:24.146Z,5.4
2019-01-11T15:45:55.762Z,5.3
2019-01-11T15:51:18.382Z,5.3
2019-01-11T15:56:44.978Z,5.2
2019-01-11T16:02:12.665Z,5.2
2019-01-11T16:07:39.239Z,5.1
2019-01-11T16:13:06.807Z,5.1
2019-01-11T16:18:33.476Z,5.1
2019-01-11T16:24:00.986Z,5
2019-01-11T16:29:27.593Z,5
2019-01-11T16:34:54.161Z,4.9
2019-01-11T16:40:20.733Z,4.9
2019-01-11T16:45:48.317Z,4.8
2019-01-11T16:51:15.894Z,4.8
2019-01-11T16:56:43.609Z,4.8
2019-01-11T17:02:11.100Z,4.7
2019-01-11T17:07:38.613Z,4.7
2019-01-11T17:13:06.177Z,4.6
2019-01-11T17:18:33.715Z,4.6
2019-01-11T17:24:00.360Z,4.6
2019-01-11T17:29:26.849Z,4.6
2019-01-11T17:34:54.404Z,4.6
2019-01-11T17:40:21.016Z,4.6
2019-01-11T17:45:47.552Z,4.6
2019-01-11T17:51:15.081Z,4.5
2019-01-11T17:56:41.662Z,4.5
2019-01-11T18:02:08.194Z,4.5
2019-01-11T18:07:34.721Z,4.4
2019-01-11T18:13:01.314Z,4.4
2019-01-11T18:18:28.838Z,4.4
2019-01-11T18:23:55.367Z,4.4
2019-01-11T18:29:22.943Z,4.4
2019-01-11T18:34:49.494Z,4.4
2019-01-11T18:40:16.056Z,4.4
2019-01-11T18:45:43.558Z,4.4
2019-01-11T18:51:11.102Z,4.4
2019-01-11T18:56:38.637Z,4.4
2019-01-11T19:02:06.187Z,4.3
2019-01-11T19:07:33.804Z,4.3
2019-01-11T19:13:01.349Z,4.3
2019-01-11T19:18:27.826Z,4.2
2019-01-11T19:23:54.334Z,4.2
2019-01-11T19:29:20.864Z,4.1
2019-01-11T19:34:48.401Z,4.1
2019-01-11T19:40:15.889Z,4
2019-01-11T19:45:43.407Z,4
2019-01-11T19:51:10.977Z,3.9
2019-01-11T19:56:38.457Z,3.9
2019-01-11T20:02:05.969Z,3.9
2019-01-11T20:07:32.502Z,3.9
2019-01-11T20:12:58.995Z,3.8
2019-01-11T20:18:25.512Z,3.8
2019-01-11T20:23:52.974Z,3.8
2019-01-11T20:29:20.480Z,3.8
2019-01-11T20:34:47.991Z,3.8
2019-01-11T20:40:15.485Z,3.7
2019-01-11T20:45:41.944Z,3.7
2019-01-11T20:51:08.455Z,3.7
2019-01-11T20:56:34.938Z,3.7
2019-01-11T21:02:02.498Z,3.7
2019-01-11T21:07:29.933Z,3.7
2019-01-11T21:12:56.412Z,3.7
2019-01-11T21:18:22.958Z,3.7
2019-01-11T21:23:49.402Z,3.6
2019-01-11T21:29:16.878Z,3.6
2019-01-11T21:35:19.124Z,3.7
2019-01-11T21:40:11.870Z,3.7
2019-01-11T21:45:39.374Z,3.7
2019-01-11T21:51:05.958Z,3.7
2019-01-11T22:02:00.834Z,3.8
2019-01-11T22:07:27.330Z,3.8
2019-01-11T22:12:54.797Z,3.8
2019-01-11T22:18:22.326Z,3.8
2019-01-11T22:23:48.961Z,3.8
2019-01-11T22:29:15.423Z,3.8
2019-01-11T22:34:42.814Z,3.8
2019-01-11T22:40:09.263Z,3.8
2019-01-11T22:45:35.767Z,3.8
2019-01-11T22:51:02.293Z,3.8
2019-01-11T22:56:28.782Z,3.9
2019-01-11T23:01:56.297Z,3.9
2019-01-11T23:07:22.797Z,4
2019-01-11T23:12:50.364Z,4
2019-01-11T23:18:16.792Z,4
2019-01-11T23:23:44.314Z,4.1
2019-01-11T23:29:11.870Z,4.1
2019-01-11T23:34:38.371Z,4.2
2019-01-11T23:40:04.938Z,4.2
2019-01-11T23:45:32.492Z,4.3
2019-01-11T23:50:58.952Z,4.3
2019-01-11T23:56:25.514Z,4.3
